sensor_id;sensor_type;location;lat;lon;timestamp;pressure;altitude;pressure_sealevel;temperature;humidity
40850;BME280;26571;41.610;25.380;2023-01-29T00:01:06;98414.44;;;6.67;nan
40850;BME280;26571;41.610;25.380;2023-01-29T00:03:32;98366.03;;;6.44;nan
40850;BME280;26571;41.610;25.380;2023-01-29T00:05:58;98414.13;;;6.70;nan
40850;BME280;26571;41.610;25.380;2023-01-29T00:08:24;98406.44;;;6.69;nan
40850;BME280;26571;41.610;25.380;2023-01-29T00:10:49;98423.38;;;6.65;nan
40850;BME280;26571;41.610;25.380;2023-01-29T00:13:15;98415.53;;;6.65;nan
40850;BME280;26571;41.610;25.380;2023-01-29T00:15:40;98417.16;;;6.66;nan
40850;BME280;26571;41.610;25.380;2023-01-29T00:18:06;98416.34;;;6.65;nan
40850;BME280;26571;41.610;25.380;2023-01-29T00:20:31;98424.06;;;6.67;nan
40850;BME280;26571;41.610;25.380;2023-01-29T00:22:57;98426.53;;;6.68;nan
40850;BME280;26571;41.610;25.380;2023-01-29T00:25:23;98422.94;;;6.69;nan
40850;BME280;26571;41.610;25.380;2023-01-29T00:27:49;98428.19;;;6.69;nan
40850;BME280;26571;41.610;25.380;2023-01-29T00:30:14;98424.06;;;6.67;nan
40850;BME280;26571;41.610;25.380;2023-01-29T00:32:43;98423.38;;;6.65;nan
40850;BME280;26571;41.610;25.380;2023-01-29T00:35:09;98417.47;;;6.63;nan
40850;BME280;26571;41.610;25.380;2023-01-29T00:37:35;98422.16;;;6.59;nan
40850;BME280;26571;41.610;25.380;2023-01-29T00:40:00;98424.09;;;6.57;nan
40850;BME280;26571;41.610;25.380;2023-01-29T00:42:26;98429.59;;;6.54;nan
40850;BME280;26571;41.610;25.380;2023-01-29T00:45:10;98431.53;;;6.52;nan
40850;BME280;26571;41.610;25.380;2023-01-29T00:47:36;98431.78;;;6.59;nan
40850;BME280;26571;41.610;25.380;2023-01-29T00:50:04;98436.47;;;6.55;nan
40850;BME280;26571;41.610;25.380;2023-01-29T00:52:31;98441.13;;;6.61;nan
40850;BME280;26571;41.610;25.380;2023-01-29T00:54:58;98435.91;;;6.61;nan
40850;BME280;26571;41.610;25.380;2023-01-29T00:57:25;98437.97;;;6.67;nan
40850;BME280;26571;41.610;25.380;2023-01-29T00:59:51;98435.06;;;6.70;nan
40850;BME280;26571;41.610;25.380;2023-01-29T01:02:17;98430.66;;;6.61;nan
40850;BME280;26571;41.610;25.380;2023-01-29T01:05:01;98452.44;;;6.71;nan
40850;BME280;26571;41.610;25.380;2023-01-29T01:07:28;98405.94;;;6.46;nan
40850;BME280;26571;41.610;25.380;2023-01-29T01:09:53;98450.75;;;6.70;nan
40850;BME280;26571;41.610;25.380;2023-01-29T01:12:37;98449.94;;;6.70;nan
40850;BME280;26571;41.610;25.380;2023-01-29T01:15:03;98414.19;;;6.41;nan
40850;BME280;26571;41.610;25.380;2023-01-29T01:17:28;98420.69;;;6.37;nan
40850;BME280;26571;41.610;25.380;2023-01-29T01:19:54;98445.28;;;6.54;nan
40850;BME280;26571;41.610;25.380;2023-01-29T01:22:19;98446.81;;;6.57;nan
40850;BME280;26571;41.610;25.380;2023-01-29T01:24:44;98438.81;;;6.68;nan
40850;BME280;26571;41.610;25.380;2023-01-29T01:27:10;98444.13;;;6.76;nan
40850;BME280;26571;41.610;25.380;2023-01-29T01:29:36;98448.28;;;6.79;nan
40850;BME280;26571;41.610;25.380;2023-01-29T01:32:02;98446.63;;;6.78;nan
40850;BME280;26571;41.610;25.380;2023-01-29T01:34:28;98463.97;;;6.79;nan
40850;BME280;26571;41.610;25.380;2023-01-29T01:36:53;98451.31;;;6.74;nan
40850;BME280;26571;41.610;25.380;2023-01-29T01:39:20;98448.84;;;6.72;nan
40850;BME280;26571;41.610;25.380;2023-01-29T01:41:46;98447.47;;;6.68;nan
40850;BME280;26571;41.610;25.380;2023-01-29T01:47:14;98418.06;;;6.47;nan
40850;BME280;26571;41.610;25.380;2023-01-29T01:49:42;98443.75;;;6.61;nan
40850;BME280;26571;41.610;25.380;2023-01-29T01:52:08;98430.84;;;6.50;nan
40850;BME280;26571;41.610;25.380;2023-01-29T01:54:34;98450.25;;;6.57;nan
40850;BME280;26571;41.610;25.380;2023-01-29T01:57:08;98454.66;;;6.57;nan
40850;BME280;26571;41.610;25.380;2023-01-29T01:59:42;98447.75;;;6.56;nan
40850;BME280;26571;41.610;25.380;2023-01-29T02:02:10;98445.84;;;6.58;nan
40850;BME280;26571;41.610;25.380;2023-01-29T02:04:55;98441.69;;;6.55;nan
40850;BME280;26571;41.610;25.380;2023-01-29T02:07:41;98451.63;;;6.52;nan
40850;BME280;26571;41.610;25.380;2023-01-29T02:10:26;98434.28;;;6.41;nan
40850;BME280;26571;41.610;25.380;2023-01-29T02:12:55;98443.66;;;6.43;nan
40850;BME280;26571;41.610;25.380;2023-01-29T02:15:20;98439.53;;;6.41;nan
40850;BME280;26571;41.610;25.380;2023-01-29T02:17:46;98437.06;;;6.39;nan
40850;BME280;26571;41.610;25.380;2023-01-29T02:20:27;98439.81;;;6.38;nan
40850;BME280;26571;41.610;25.380;2023-01-29T02:25:45;98450.28;;;6.38;nan
40850;BME280;26571;41.610;25.380;2023-01-29T02:34:22;98458.13;;;6.38;nan
40850;BME280;26571;41.610;25.380;2023-01-29T02:36:56;98452.19;;;6.36;nan
40850;BME280;26571;41.610;25.380;2023-01-29T02:39:39;98457.00;;;6.31;nan
40850;BME280;26571;41.610;25.380;2023-01-29T02:42:13;98442.59;;;6.17;nan
40850;BME280;26571;41.610;25.380;2023-01-29T02:45:14;98462.13;;;6.22;nan
40850;BME280;26571;41.610;25.380;2023-01-29T02:47:58;98464.03;;;6.20;nan
40850;BME280;26571;41.610;25.380;2023-01-29T02:50:29;98468.59;;;6.18;nan
40850;BME280;26571;41.610;25.380;2023-01-29T02:53:11;98463.19;;;6.10;nan
40850;BME280;26571;41.610;25.380;2023-01-29T02:56:05;98477.50;;;6.16;nan
40850;BME280;26571;41.610;25.380;2023-01-29T03:01:06;98476.13;;;6.21;nan
40850;BME280;26571;41.610;25.380;2023-01-29T03:03:38;98476.41;;;6.18;nan
40850;BME280;26571;41.610;25.380;2023-01-29T03:11:08;98481.81;;;6.27;nan
40850;BME280;26571;41.610;25.380;2023-01-29T03:16:41;98479.84;;;6.29;nan
40850;BME280;26571;41.610;25.380;2023-01-29T03:19:31;98479.03;;;6.28;nan
40850;BME280;26571;41.610;25.380;2023-01-29T03:22:01;98484.13;;;6.30;nan
40850;BME280;26571;41.610;25.380;2023-01-29T03:24:36;98482.75;;;6.26;nan
40850;BME280;26571;41.610;25.380;2023-01-29T03:27:26;98481.81;;;6.27;nan
40850;BME280;26571;41.610;25.380;2023-01-29T03:30:11;98478.88;;;6.30;nan
40850;BME280;26571;41.610;25.380;2023-01-29T03:32:58;98481.81;;;6.27;nan
40850;BME280;26571;41.610;25.380;2023-01-29T03:35:25;98491.28;;;6.28;nan
40850;BME280;26571;41.610;25.380;2023-01-29T03:38:06;98459.75;;;6.10;nan
40850;BME280;26571;41.610;25.380;2023-01-29T03:40:43;98491.28;;;6.28;nan
40850;BME280;26571;41.610;25.380;2023-01-29T03:43:17;98494.72;;;6.18;nan
40850;BME280;26571;41.610;25.380;2023-01-29T03:48:40;98499.25;;;6.16;nan
40850;BME280;26571;41.610;25.380;2023-01-29T03:51:26;98494.88;;;6.27;nan
40850;BME280;26571;41.610;25.380;2023-01-29T03:54:24;98499.25;;;6.36;nan
40850;BME280;26571;41.610;25.380;2023-01-29T03:57:39;98500.38;;;6.33;nan
40850;BME280;26571;41.610;25.380;2023-01-29T04:00:05;98506.69;;;6.31;nan
40850;BME280;26571;41.610;25.380;2023-01-29T04:03:00;98509.44;;;6.29;nan
40850;BME280;26571;41.610;25.380;2023-01-29T04:05:34;98510.13;;;6.31;nan
40850;BME280;26571;41.610;25.380;2023-01-29T04:08:07;98510.94;;;6.41;nan
40850;BME280;26571;41.610;25.380;2023-01-29T04:10:36;98520.03;;;6.37;nan
40850;BME280;26571;41.610;25.380;2023-01-29T04:13:07;98520.16;;;6.45;nan
40850;BME280;26571;41.610;25.380;2023-01-29T04:15:47;98516.31;;;6.40;nan
40850;BME280;26571;41.610;25.380;2023-01-29T04:18:14;98515.91;;;6.25;nan
40850;BME280;26571;41.610;25.380;2023-01-29T04:20:39;98530.34;;;6.39;nan
40850;BME280;26571;41.610;25.380;2023-01-29T04:23:06;98531.19;;;6.30;nan
40850;BME280;26571;41.610;25.380;2023-01-29T04:25:43;98534.34;;;6.43;nan
40850;BME280;26571;41.610;25.380;2023-01-29T04:28:20;98537.63;;;6.35;nan
40850;BME280;26571;41.610;25.380;2023-01-29T04:31:01;98536.81;;;6.35;nan
40850;BME280;26571;41.610;25.380;2023-01-29T04:33:34;98539.69;;;6.41;nan
40850;BME280;26571;41.610;25.380;2023-01-29T04:39:10;98551.28;;;6.39;nan
40850;BME280;26571;41.610;25.380;2023-01-29T04:57:44;98554.69;;;6.20;nan
40850;BME280;26571;41.610;25.380;2023-01-29T05:00:19;98555.25;;;6.24;nan
40850;BME280;26571;41.610;25.380;2023-01-29T05:02:45;98552.47;;;6.15;nan
40850;BME280;26571;41.610;25.380;2023-01-29T05:05:13;98543.25;;;6.11;nan
40850;BME280;26571;41.610;25.380;2023-01-29T05:07:42;98566.28;;;6.27;nan
40850;BME280;26571;41.610;25.380;2023-01-29T05:10:09;98572.16;;;6.19;nan
40850;BME280;26571;41.610;25.380;2023-01-29T05:12:36;98572.59;;;6.25;nan
40850;BME280;26571;41.610;25.380;2023-01-29T05:15:07;98574.50;;;6.13;nan
40850;BME280;26571;41.610;25.380;2023-01-29T05:17:33;98573.25;;;6.07;nan
40850;BME280;26571;41.610;25.380;2023-01-29T05:19:59;98572.13;;;6.00;nan
40850;BME280;26571;41.610;25.380;2023-01-29T05:22:25;98576.19;;;5.83;nan
40850;BME280;26571;41.610;25.380;2023-01-29T05:24:51;98586.84;;;5.70;nan
40850;BME280;26571;41.610;25.380;2023-01-29T05:27:28;98564.31;;;5.39;nan
40850;BME280;26571;41.610;25.380;2023-01-29T05:30:14;98587.47;;;5.53;nan
40850;BME280;26571;41.610;25.380;2023-01-29T05:32:40;98585.41;;;5.47;nan
40850;BME280;26571;41.610;25.380;2023-01-29T05:35:05;98552.03;;;5.30;nan
40850;BME280;26571;41.610;25.380;2023-01-29T05:37:31;98581.09;;;5.46;nan
40850;BME280;26571;41.610;25.380;2023-01-29T05:39:56;98584.34;;;5.59;nan
40850;BME280;26571;41.610;25.380;2023-01-29T05:42:22;98586.84;;;5.70;nan
40850;BME280;26571;41.610;25.380;2023-01-29T05:44:48;98574.31;;;5.64;nan
40850;BME280;26571;41.610;25.380;2023-01-29T05:47:13;98593.72;;;5.71;nan
40850;BME280;26571;41.610;25.380;2023-01-29T05:49:42;98593.28;;;5.66;nan
40850;BME280;26571;41.610;25.380;2023-01-29T05:52:07;98586.25;;;5.57;nan
40850;BME280;26571;41.610;25.380;2023-01-29T05:54:33;98598.59;;;5.55;nan
40850;BME280;26571;41.610;25.380;2023-01-29T05:56:58;98597.97;;;5.63;nan
40850;BME280;26571;41.610;25.380;2023-01-29T05:59:24;98602.22;;;5.64;nan
40850;BME280;26571;41.610;25.380;2023-01-29T06:01:49;98604.78;;;5.54;nan
40850;BME280;26571;41.610;25.380;2023-01-29T06:04:14;98598.50;;;5.66;nan
40850;BME280;26571;41.610;25.380;2023-01-29T06:06:40;98604.44;;;5.68;nan
40850;BME280;26571;41.610;25.380;2023-01-29T06:09:05;98607.50;;;5.74;nan
40850;BME280;26571;41.610;25.380;2023-01-29T06:11:31;98608.09;;;5.87;nan
40850;BME280;26571;41.610;25.380;2023-01-29T06:13:56;98610.25;;;5.82;nan
40850;BME280;26571;41.610;25.380;2023-01-29T06:16:22;98566.63;;;5.63;nan
40850;BME280;26571;41.610;25.380;2023-01-29T06:18:47;98612.53;;;5.96;nan
40850;BME280;26571;41.610;25.380;2023-01-29T06:21:13;98615.03;;;5.98;nan
40850;BME280;26571;41.610;25.380;2023-01-29T06:23:39;98625.69;;;5.85;nan
40850;BME280;26571;41.610;25.380;2023-01-29T06:26:11;98630.59;;;5.48;nan
40850;BME280;26571;41.610;25.380;2023-01-29T06:28:37;98628.41;;;5.22;nan
40850;BME280;26571;41.610;25.380;2023-01-29T06:31:04;98627.69;;;5.20;nan
40850;BME280;26571;41.610;25.380;2023-01-29T06:33:29;98627.59;;;4.89;nan
40850;BME280;26571;41.610;25.380;2023-01-29T06:35:56;98632.94;;;4.88;nan
40850;BME280;26571;41.610;25.380;2023-01-29T06:38:22;98619.25;;;4.75;nan
40850;BME280;26571;41.610;25.380;2023-01-29T06:40:48;98634.59;;;4.89;nan
40850;BME280;26571;41.610;25.380;2023-01-29T06:43:13;98642.59;;;4.76;nan
40850;BME280;26571;41.610;25.380;2023-01-29T06:45:49;98638.66;;;4.82;nan
40850;BME280;26571;41.610;25.380;2023-01-29T06:48:14;98595.66;;;4.44;nan
40850;BME280;26571;41.610;25.380;2023-01-29T06:50:40;98639.16;;;4.76;nan
40850;BME280;26571;41.610;25.380;2023-01-29T06:53:05;98644.22;;;4.77;nan
40850;BME280;26571;41.610;25.380;2023-01-29T06:55:31;98638.09;;;4.67;nan
40850;BME280;26571;41.610;25.380;2023-01-29T06:57:56;98655.75;;;4.75;nan
40850;BME280;26571;41.610;25.380;2023-01-29T07:00:21;98646.00;;;4.88;nan
40850;BME280;26571;41.610;25.380;2023-01-29T07:02:50;98654.41;;;5.12;nan
40850;BME280;26571;41.610;25.380;2023-01-29T07:05:15;98653.84;;;5.09;nan
40850;BME280;26571;41.610;25.380;2023-01-29T07:07:41;98648.34;;;4.91;nan
40850;BME280;26571;41.610;25.380;2023-01-29T07:10:07;98659.72;;;4.90;nan
40850;BME280;26571;41.610;25.380;2023-01-29T07:12:32;98656.75;;;4.51;nan
40850;BME280;26571;41.610;25.380;2023-01-29T07:14:58;98645.78;;;4.36;nan
40850;BME280;26571;41.610;25.380;2023-01-29T07:17:23;98668.16;;;4.50;nan
40850;BME280;26571;41.610;25.380;2023-01-29T07:19:49;98661.97;;;4.62;nan
40850;BME280;26571;41.610;25.380;2023-01-29T07:22:14;98663.78;;;4.83;nan
40850;BME280;26571;41.610;25.380;2023-01-29T07:24:40;98669.75;;;4.74;nan
40850;BME280;26571;41.610;25.380;2023-01-29T07:27:06;98605.56;;;4.07;nan
40850;BME280;26571;41.610;25.380;2023-01-29T07:29:31;98672.09;;;4.33;nan
40850;BME280;26571;41.610;25.380;2023-01-29T07:31:57;98666.19;;;4.20;nan
40850;BME280;26571;41.610;25.380;2023-01-29T07:34:22;98672.00;;;4.24;nan
40850;BME280;26571;41.610;25.380;2023-01-29T07:36:47;98672.94;;;4.23;nan
40850;BME280;26571;41.610;25.380;2023-01-29T07:39:13;98676.81;;;4.39;nan
40850;BME280;26571;41.610;25.380;2023-01-29T07:41:38;98677.22;;;4.24;nan
40850;BME280;26571;41.610;25.380;2023-01-29T07:44:04;98683.84;;;4.28;nan
40850;BME280;26571;41.610;25.380;2023-01-29T07:46:29;98683.19;;;4.47;nan
40850;BME280;26571;41.610;25.380;2023-01-29T07:48:56;98689.50;;;4.44;nan
40850;BME280;26571;41.610;25.380;2023-01-29T07:51:22;98685.91;;;4.68;nan
40850;BME280;26571;41.610;25.380;2023-01-29T07:53:47;98683.06;;;5.03;nan
40850;BME280;26571;41.610;25.380;2023-01-29T07:56:13;98687.25;;;5.36;nan
40850;BME280;26571;41.610;25.380;2023-01-29T07:58:38;98688.66;;;5.40;nan
40850;BME280;26571;41.610;25.380;2023-01-29T08:01:05;98686.63;;;5.23;nan
40850;BME280;26571;41.610;25.380;2023-01-29T08:03:31;98687.13;;;5.16;nan
40850;BME280;26571;41.610;25.380;2023-01-29T08:05:57;98657.06;;;5.01;nan
40850;BME280;26571;41.610;25.380;2023-01-29T08:08:22;98698.00;;;5.22;nan
40850;BME280;26571;41.610;25.380;2023-01-29T08:10:47;98696.19;;;5.33;nan
40850;BME280;26571;41.610;25.380;2023-01-29T08:13:13;98698.78;;;5.33;nan
40850;BME280;26571;41.610;25.380;2023-01-29T08:15:41;98657.72;;;5.14;nan
40850;BME280;26571;41.610;25.380;2023-01-29T08:18:07;98705.59;;;5.25;nan
40850;BME280;26571;41.610;25.380;2023-01-29T08:20:33;98707.78;;;4.87;nan
40850;BME280;26571;41.610;25.380;2023-01-29T08:23:01;98716.63;;;4.96;nan
40850;BME280;26571;41.610;25.380;2023-01-29T08:25:27;98710.53;;;5.07;nan
40850;BME280;26571;41.610;25.380;2023-01-29T08:27:54;98711.53;;;4.95;nan
40850;BME280;26571;41.610;25.380;2023-01-29T08:30:20;98703.41;;;5.09;nan
40850;BME280;26571;41.610;25.380;2023-01-29T08:32:45;98712.38;;;5.16;nan
40850;BME280;26571;41.610;25.380;2023-01-29T08:35:11;98704.31;;;5.40;nan
40850;BME280;26571;41.610;25.380;2023-01-29T08:37:36;98707.44;;;5.55;nan
40850;BME280;26571;41.610;25.380;2023-01-29T08:40:01;98720.25;;;5.79;nan
40850;BME280;26571;41.610;25.380;2023-01-29T08:42:27;98719.47;;;5.88;nan
40850;BME280;26571;41.610;25.380;2023-01-29T08:44:52;98723.31;;;5.84;nan
40850;BME280;26571;41.610;25.380;2023-01-29T08:47:18;98719.44;;;5.78;nan
40850;BME280;26571;41.610;25.380;2023-01-29T08:49:43;98720.19;;;5.69;nan
40850;BME280;26571;41.610;25.380;2023-01-29T08:52:08;98718.03;;;5.53;nan
40850;BME280;26571;41.610;25.380;2023-01-29T08:54:34;98716.31;;;5.63;nan
40850;BME280;26571;41.610;25.380;2023-01-29T08:56:59;98726.09;;;5.50;nan
40850;BME280;26571;41.610;25.380;2023-01-29T08:59:25;98725.88;;;5.53;nan
40850;BME280;26571;41.610;25.380;2023-01-29T09:01:50;98728.13;;;5.47;nan
40850;BME280;26571;41.610;25.380;2023-01-29T09:04:15;98725.72;;;5.76;nan
40850;BME280;26571;41.610;25.380;2023-01-29T09:06:41;98718.31;;;5.81;nan
40850;BME280;26571;41.610;25.380;2023-01-29T09:09:06;98724.22;;;5.94;nan
40850;BME280;26571;41.610;25.380;2023-01-29T09:11:32;98708.34;;;6.07;nan
40850;BME280;26571;41.610;25.380;2023-01-29T09:13:57;98721.38;;;6.37;nan
40850;BME280;26571;41.610;25.380;2023-01-29T09:16:23;98721.25;;;6.08;nan
40850;BME280;26571;41.610;25.380;2023-01-29T09:18:48;98718.38;;;5.90;nan
40850;BME280;26571;41.610;25.380;2023-01-29T09:21:13;98716.69;;;5.59;nan
40850;BME280;26571;41.610;25.380;2023-01-29T09:23:39;98656.75;;;4.95;nan
40850;BME280;26571;41.610;25.380;2023-01-29T09:26:06;98716.38;;;4.99;nan
40850;BME280;26571;41.610;25.380;2023-01-29T09:28:31;98720.84;;;5.08;nan
40850;BME280;26571;41.610;25.380;2023-01-29T09:31:00;98714.72;;;4.98;nan
40850;BME280;26571;41.610;25.380;2023-01-29T09:33:26;98709.91;;;5.14;nan
40850;BME280;26571;41.610;25.380;2023-01-29T09:35:51;98711.66;;;4.93;nan
40850;BME280;26571;41.610;25.380;2023-01-29T09:38:17;98680.09;;;4.64;nan
40850;BME280;26571;41.610;25.380;2023-01-29T09:44:19;98696.38;;;4.77;nan
40850;BME280;26571;41.610;25.380;2023-01-29T09:46:46;98690.16;;;4.69;nan
40850;BME280;26571;41.610;25.380;2023-01-29T09:49:30;98687.06;;;4.75;nan
40850;BME280;26571;41.610;25.380;2023-01-29T09:52:02;98695.91;;;4.83;nan
40850;BME280;26571;41.610;25.380;2023-01-29T09:54:34;98686.31;;;4.84;nan
40850;BME280;26571;41.610;25.380;2023-01-29T09:57:14;98680.69;;;4.68;nan
40850;BME280;26571;41.610;25.380;2023-01-29T09:59:43;98671.56;;;4.94;nan
40850;BME280;26571;41.610;25.380;2023-01-29T10:05:24;98680.75;;;5.93;nan
40850;BME280;26571;41.610;25.380;2023-01-29T10:08:12;98681.41;;;5.64;nan
40850;BME280;26571;41.610;25.380;2023-01-29T10:13:35;98669.50;;;5.30;nan
40850;BME280;26571;41.610;25.380;2023-01-29T10:16:17;98667.56;;;5.74;nan
40850;BME280;26571;41.610;25.380;2023-01-29T10:21:36;98666.06;;;6.42;nan
40850;BME280;26571;41.610;25.380;2023-01-29T10:26:39;98664.84;;;7.43;nan
40850;BME280;26571;41.610;25.380;2023-01-29T10:29:06;98599.16;;;7.27;nan
40850;BME280;26571;41.610;25.380;2023-01-29T10:31:36;98659.06;;;7.96;nan
40850;BME280;26571;41.610;25.380;2023-01-29T10:34:13;98661.28;;;8.18;nan
40850;BME280;26571;41.610;25.380;2023-01-29T10:36:46;98655.56;;;8.33;nan
40850;BME280;26571;41.610;25.380;2023-01-29T10:39:17;98656.09;;;8.46;nan
40850;BME280;26571;41.610;25.380;2023-01-29T10:42:03;98655.38;;;8.44;nan
40850;BME280;26571;41.610;25.380;2023-01-29T10:44:51;98629.72;;;8.10;nan
40850;BME280;26571;41.610;25.380;2023-01-29T10:52:56;98640.03;;;8.49;nan
40850;BME280;26571;41.610;25.380;2023-01-29T11:00:38;98637.19;;;8.42;nan
40850;BME280;26571;41.610;25.380;2023-01-29T11:03:17;98638.16;;;8.41;nan
40850;BME280;26571;41.610;25.380;2023-01-29T11:11:18;98626.56;;;8.34;nan
40850;BME280;26571;41.610;25.380;2023-01-29T11:13:54;98630.59;;;8.56;nan
40850;BME280;26571;41.610;25.380;2023-01-29T11:16:22;98610.38;;;8.66;nan
40850;BME280;26571;41.610;25.380;2023-01-29T11:18:55;98619.03;;;8.85;nan
40850;BME280;26571;41.610;25.380;2023-01-29T11:21:22;98621.00;;;8.83;nan
40850;BME280;26571;41.610;25.380;2023-01-29T11:23:49;98628.66;;;8.58;nan
40850;BME280;26571;41.610;25.380;2023-01-29T11:26:19;98611.94;;;8.77;nan
40850;BME280;26571;41.610;25.380;2023-01-29T11:28:49;98601.44;;;8.77;nan
40850;BME280;26571;41.610;25.380;2023-01-29T11:33:40;98611.16;;;8.85;nan
40850;BME280;26571;41.610;25.380;2023-01-29T11:36:26;98612.47;;;8.80;nan
40850;BME280;26571;41.610;25.380;2023-01-29T11:41:41;98610.78;;;8.79;nan
40850;BME280;26571;41.610;25.380;2023-01-29T11:44:17;98595.00;;;8.71;nan
40850;BME280;26571;41.610;25.380;2023-01-29T11:46:43;98598.72;;;8.69;nan
40850;BME280;26571;41.610;25.380;2023-01-29T11:49:32;98598.41;;;8.90;nan
40850;BME280;26571;41.610;25.380;2023-01-29T11:52:01;98588.72;;;9.08;nan
40850;BME280;26571;41.610;25.380;2023-01-29T11:54:31;98587.19;;;9.23;nan
40850;BME280;26571;41.610;25.380;2023-01-29T11:56:59;98593.50;;;9.30;nan
40850;BME280;26571;41.610;25.380;2023-01-29T11:59:42;98591.72;;;9.65;nan
40850;BME280;26571;41.610;25.380;2023-01-29T12:02:29;98572.00;;;9.61;nan
40850;BME280;26571;41.610;25.380;2023-01-29T12:07:41;98589.16;;;9.47;nan
40850;BME280;26571;41.610;25.380;2023-01-29T12:10:31;98597.13;;;9.64;nan
40850;BME280;26571;41.610;25.380;2023-01-29T12:13:20;98585.19;;;9.77;nan
40850;BME280;26571;41.610;25.380;2023-01-29T12:16:22;98586.34;;;9.75;nan
40850;BME280;26571;41.610;25.380;2023-01-29T12:35:30;98579.69;;;9.97;nan
40850;BME280;26571;41.610;25.380;2023-01-29T12:40:32;98597.63;;;10.44;nan
40850;BME280;26571;41.610;25.380;2023-01-29T12:43:04;98592.06;;;10.63;nan
40850;BME280;26571;41.610;25.380;2023-01-29T12:45:31;98564.09;;;10.62;nan
40850;BME280;26571;41.610;25.380;2023-01-29T12:48:05;98540.38;;;10.46;nan
40850;BME280;26571;41.610;25.380;2023-01-29T12:50:34;98584.13;;;10.39;nan
40850;BME280;26571;41.610;25.380;2023-01-29T12:53:06;98581.16;;;10.33;nan
40850;BME280;26571;41.610;25.380;2023-01-29T12:55:50;98587.41;;;10.32;nan
40850;BME280;26571;41.610;25.380;2023-01-29T12:58:28;98575.34;;;10.22;nan
40850;BME280;26571;41.610;25.380;2023-01-29T13:00:58;98561.28;;;9.97;nan
40850;BME280;26571;41.610;25.380;2023-01-29T13:03:31;98584.44;;;9.59;nan
40850;BME280;26571;41.610;25.380;2023-01-29T13:06:07;98547.22;;;8.50;nan
40850;BME280;26571;41.610;25.380;2023-01-29T13:11:36;98575.13;;;8.06;nan
40850;BME280;26571;41.610;25.380;2023-01-29T13:14:13;98570.59;;;7.70;nan
40850;BME280;26571;41.610;25.380;2023-01-29T13:16:48;98569.72;;;7.52;nan
40850;BME280;26571;41.610;25.380;2023-01-29T13:19:28;98570.81;;;7.87;nan
40850;BME280;26571;41.610;25.380;2023-01-29T13:21:58;98575.88;;;8.16;nan
40850;BME280;26571;41.610;25.380;2023-01-29T13:24:36;98566.94;;;8.54;nan
40850;BME280;26571;41.610;25.380;2023-01-29T13:27:03;98572.88;;;8.56;nan
40850;BME280;26571;41.610;25.380;2023-01-29T13:29:29;98572.41;;;8.78;nan
40850;BME280;26571;41.610;25.380;2023-01-29T13:31:57;98567.50;;;9.01;nan
40850;BME280;26571;41.610;25.380;2023-01-29T13:34:29;98567.75;;;8.90;nan
40850;BME280;26571;41.610;25.380;2023-01-29T13:37:00;98567.84;;;8.63;nan
40850;BME280;26571;41.610;25.380;2023-01-29T13:39:35;98573.97;;;8.89;nan
40850;BME280;26571;41.610;25.380;2023-01-29T13:42:16;98569.06;;;9.12;nan
40850;BME280;26571;41.610;25.380;2023-01-29T13:45:20;98568.34;;;9.02;nan
40850;BME280;26571;41.610;25.380;2023-01-29T13:47:47;98570.59;;;8.97;nan
40850;BME280;26571;41.610;25.380;2023-01-29T13:52:44;98565.75;;;8.66;nan
40850;BME280;26571;41.610;25.380;2023-01-29T13:57:46;98574.47;;;8.21;nan
40850;BME280;26571;41.610;25.380;2023-01-29T14:08:01;98584.97;;;7.66;nan
40850;BME280;26571;41.610;25.380;2023-01-29T14:10:28;98587.06;;;7.53;nan
40850;BME280;26571;41.610;25.380;2023-01-29T14:15:39;98567.22;;;6.94;nan
40850;BME280;26571;41.610;25.380;2023-01-29T14:29:12;98608.16;;;7.61;nan
40850;BME280;26571;41.610;25.380;2023-01-29T14:36:48;98606.63;;;6.83;nan
40850;BME280;26571;41.610;25.380;2023-01-29T14:39:22;98604.97;;;6.91;nan
40850;BME280;26571;41.610;25.380;2023-01-29T14:41:50;98611.72;;;6.94;nan
40850;BME280;26571;41.610;25.380;2023-01-29T14:49:58;98571.88;;;6.03;nan
40850;BME280;26571;41.610;25.380;2023-01-29T14:52:28;98608.22;;;6.26;nan
40850;BME280;26571;41.610;25.380;2023-01-29T14:54:59;98579.56;;;6.05;nan
40850;BME280;26571;41.610;25.380;2023-01-29T14:57:28;98604.94;;;6.33;nan
40850;BME280;26571;41.610;25.380;2023-01-29T14:59:57;98618.72;;;6.45;nan
40850;BME280;26571;41.610;25.380;2023-01-29T15:02:29;98598.34;;;6.39;nan
40850;BME280;26571;41.610;25.380;2023-01-29T15:05:02;98623.69;;;6.48;nan
40850;BME280;26571;41.610;25.380;2023-01-29T15:07:39;98625.56;;;6.27;nan
40850;BME280;26571;41.610;25.380;2023-01-29T15:10:16;98631.22;;;6.32;nan
40850;BME280;26571;41.610;25.380;2023-01-29T15:13:03;98630.78;;;6.17;nan
40850;BME280;26571;41.610;25.380;2023-01-29T15:20:38;98593.72;;;5.41;nan
40850;BME280;26571;41.610;25.380;2023-01-29T15:23:23;98637.19;;;5.73;nan
40850;BME280;26571;41.610;25.380;2023-01-29T15:25:51;98650.16;;;5.84;nan
40850;BME280;26571;41.610;25.380;2023-01-29T15:28:17;98621.09;;;5.47;nan
40850;BME280;26571;41.610;25.380;2023-01-29T15:30:42;98642.13;;;5.45;nan
40850;BME280;26571;41.610;25.380;2023-01-29T15:33:10;98637.34;;;5.50;nan
40850;BME280;26571;41.610;25.380;2023-01-29T15:35:37;98643.97;;;5.54;nan
40850;BME280;26571;41.610;25.380;2023-01-29T15:40:32;98642.44;;;5.31;nan
40850;BME280;26571;41.610;25.380;2023-01-29T15:42:58;98617.38;;;5.18;nan
40850;BME280;26571;41.610;25.380;2023-01-29T15:45:31;98645.50;;;5.36;nan
40850;BME280;26571;41.610;25.380;2023-01-29T15:48:04;98648.25;;;5.34;nan
40850;BME280;26571;41.610;25.380;2023-01-29T15:50:34;98649.81;;;5.67;nan
40850;BME280;26571;41.610;25.380;2023-01-29T15:53:06;98656.50;;;5.91;nan
40850;BME280;26571;41.610;25.380;2023-01-29T15:55:32;98657.38;;;6.01;nan
40850;BME280;26571;41.610;25.380;2023-01-29T15:57:58;98650.72;;;5.87;nan
40850;BME280;26571;41.610;25.380;2023-01-29T16:00:26;98666.13;;;5.90;nan
40850;BME280;26571;41.610;25.380;2023-01-29T16:02:54;98663.03;;;5.76;nan
40850;BME280;26571;41.610;25.380;2023-01-29T16:05:30;98663.63;;;5.58;nan
40850;BME280;26571;41.610;25.380;2023-01-29T16:07:58;98641.88;;;5.27;nan
40850;BME280;26571;41.610;25.380;2023-01-29T16:10:28;98664.94;;;5.22;nan